sensor_id;sensor_type;location;lat;lon;timestamp;P1;durP1;ratioP1;P2;durP2;ratioP2
17173;SDS011;8702;48.130;-1.696;2023-03-17T00:00:18;11.77;;;3.63;;
17173;SDS011;8702;48.130;-1.696;2023-03-17T00:02:46;12.77;;;4.23;;
17173;SDS011;8702;48.130;-1.696;2023-03-17T00:05:18;13.83;;;4.30;;
17173;SDS011;8702;48.130;-1.696;2023-03-17T00:07:48;11.83;;;4.23;;
17173;SDS011;8702;48.130;-1.696;2023-03-17T00:10:17;11.67;;;5.07;;
17173;SDS011;8702;48.130;-1.696;2023-03-17T00:12:47;16.50;;;4.57;;
17173;SDS011;8702;48.130;-1.696;2023-03-17T00:15:16;10.37;;;4.03;;
17173;SDS011;8702;48.130;-1.696;2023-03-17T00:17:43;14.17;;;4.00;;
17173;SDS011;8702;48.130;-1.696;2023-03-17T00:22:55;15.33;;;3.97;;
17173;SDS011;8702;48.130;-1.696;2023-03-17T00:25:24;14.67;;;4.07;;
17173;SDS011;8702;48.130;-1.696;2023-03-17T00:27:54;13.93;;;4.40;;
17173;SDS011;8702;48.130;-1.696;2023-03-17T00:30:22;13.07;;;3.57;;
17173;SDS011;8702;48.130;-1.696;2023-03-17T00:32:51;13.03;;;4.43;;
17173;SDS011;8702;48.130;-1.696;2023-03-17T00:35:21;9.37;;;4.00;;
17173;SDS011;8702;48.130;-1.696;2023-03-17T00:37:51;13.10;;;5.07;;
17173;SDS011;8702;48.130;-1.696;2023-03-17T00:40:21;9.43;;;4.30;;
17173;SDS011;8702;48.130;-1.696;2023-03-17T00:42:50;10.87;;;4.27;;
17173;SDS011;8702;48.130;-1.696;2023-03-17T00:45:19;9.77;;;3.83;;
17173;SDS011;8702;48.130;-1.696;2023-03-17T00:47:47;9.97;;;3.83;;
17173;SDS011;8702;48.130;-1.696;2023-03-17T00:50:16;9.97;;;3.83;;
17173;SDS011;8702;48.130;-1.696;2023-03-17T00:52:46;12.83;;;4.80;;
17173;SDS011;8702;48.130;-1.696;2023-03-17T00:55:14;12.93;;;4.10;;
17173;SDS011;8702;48.130;-1.696;2023-03-17T00:57:43;13.57;;;4.37;;
17173;SDS011;8702;48.130;-1.696;2023-03-17T01:00:20;10.47;;;4.10;;
17173;SDS011;8702;48.130;-1.696;2023-03-17T01:02:49;13.30;;;4.10;;
17173;SDS011;8702;48.130;-1.696;2023-03-17T01:05:17;9.67;;;3.90;;
17173;SDS011;8702;48.130;-1.696;2023-03-17T01:07:45;13.93;;;3.97;;
17173;SDS011;8702;48.130;-1.696;2023-03-17T01:10:18;11.13;;;3.53;;
17173;SDS011;8702;48.130;-1.696;2023-03-17T01:12:51;8.00;;;3.20;;
17173;SDS011;8702;48.130;-1.696;2023-03-17T01:15:22;10.20;;;3.67;;
17173;SDS011;8702;48.130;-1.696;2023-03-17T01:17:51;11.37;;;3.97;;
17173;SDS011;8702;48.130;-1.696;2023-03-17T01:20:19;9.23;;;3.97;;
17173;SDS011;8702;48.130;-1.696;2023-03-17T01:22:48;10.00;;;3.83;;
17173;SDS011;8702;48.130;-1.696;2023-03-17T01:25:16;11.57;;;3.83;;
17173;SDS011;8702;48.130;-1.696;2023-03-17T01:27:46;9.63;;;3.77;;
17173;SDS011;8702;48.130;-1.696;2023-03-17T01:30:20;10.87;;;3.40;;
17173;SDS011;8702;48.130;-1.696;2023-03-17T01:32:51;14.30;;;4.40;;
17173;SDS011;8702;48.130;-1.696;2023-03-17T01:35:18;10.57;;;3.80;;
17173;SDS011;8702;48.130;-1.696;2023-03-17T01:37:46;9.57;;;4.40;;
17173;SDS011;8702;48.130;-1.696;2023-03-17T01:40:15;11.27;;;4.43;;
17173;SDS011;8702;48.130;-1.696;2023-03-17T01:42:47;9.37;;;4.13;;
17173;SDS011;8702;48.130;-1.696;2023-03-17T01:48:23;10.43;;;4.43;;
17173;SDS011;8702;48.130;-1.696;2023-03-17T01:50:51;10.83;;;3.67;;
17173;SDS011;8702;48.130;-1.696;2023-03-17T01:53:19;13.37;;;4.27;;
17173;SDS011;8702;48.130;-1.696;2023-03-17T01:55:47;14.70;;;4.63;;
17173;SDS011;8702;48.130;-1.696;2023-03-17T01:58:16;11.63;;;4.40;;
17173;SDS011;8702;48.130;-1.696;2023-03-17T02:00:46;11.90;;;4.40;;
17173;SDS011;8702;48.130;-1.696;2023-03-17T02:03:12;8.97;;;3.80;;
17173;SDS011;8702;48.130;-1.696;2023-03-17T02:05:41;11.17;;;4.00;;
17173;SDS011;8702;48.130;-1.696;2023-03-17T02:08:09;10.40;;;3.20;;
17173;SDS011;8702;48.130;-1.696;2023-03-17T02:10:37;13.57;;;4.20;;
17173;SDS011;8702;48.130;-1.696;2023-03-17T02:13:06;9.60;;;3.83;;
17173;SDS011;8702;48.130;-1.696;2023-03-17T02:15:36;13.03;;;3.93;;
17173;SDS011;8702;48.130;-1.696;2023-03-17T02:18:05;12.73;;;4.03;;
17173;SDS011;8702;48.130;-1.696;2023-03-17T02:23:36;13.10;;;3.83;;
17173;SDS011;8702;48.130;-1.696;2023-03-17T02:26:03;13.27;;;4.00;;
17173;SDS011;8702;48.130;-1.696;2023-03-17T02:28:32;9.73;;;3.40;;
17173;SDS011;8702;48.130;-1.696;2023-03-17T02:30:59;11.53;;;4.27;;
17173;SDS011;8702;48.130;-1.696;2023-03-17T02:33:26;9.73;;;3.80;;
17173;SDS011;8702;48.130;-1.696;2023-03-17T02:35:53;10.43;;;3.87;;
17173;SDS011;8702;48.130;-1.696;2023-03-17T02:38:21;10.27;;;4.37;;
17173;SDS011;8702;48.130;-1.696;2023-03-17T02:40:50;10.23;;;4.17;;
17173;SDS011;8702;48.130;-1.696;2023-03-17T02:43:17;11.17;;;4.40;;
17173;SDS011;8702;48.130;-1.696;2023-03-17T02:45:44;9.50;;;3.70;;
17173;SDS011;8702;48.130;-1.696;2023-03-17T02:48:11;10.67;;;4.23;;
17173;SDS011;8702;48.130;-1.696;2023-03-17T02:50:38;12.23;;;3.80;;
17173;SDS011;8702;48.130;-1.696;2023-03-17T02:53:05;9.60;;;4.00;;
17173;SDS011;8702;48.130;-1.696;2023-03-17T02:55:33;8.93;;;4.07;;
17173;SDS011;8702;48.130;-1.696;2023-03-17T02:58:01;10.83;;;3.67;;
17173;SDS011;8702;48.130;-1.696;2023-03-17T03:00:28;11.57;;;4.30;;
17173;SDS011;8702;48.130;-1.696;2023-03-17T03:02:55;12.43;;;4.33;;
17173;SDS011;8702;48.130;-1.696;2023-03-17T03:05:22;12.17;;;4.13;;
17173;SDS011;8702;48.130;-1.696;2023-03-17T03:07:49;8.90;;;3.63;;
17173;SDS011;8702;48.130;-1.696;2023-03-17T03:10:17;12.37;;;4.00;;
17173;SDS011;8702;48.130;-1.696;2023-03-17T03:12:44;10.90;;;4.30;;
17173;SDS011;8702;48.130;-1.696;2023-03-17T03:15:12;15.07;;;4.20;;
17173;SDS011;8702;48.130;-1.696;2023-03-17T03:17:39;12.23;;;3.83;;
17173;SDS011;8702;48.130;-1.696;2023-03-17T03:20:07;7.53;;;3.70;;
17173;SDS011;8702;48.130;-1.696;2023-03-17T03:22:36;9.93;;;3.90;;
17173;SDS011;8702;48.130;-1.696;2023-03-17T03:25:05;8.50;;;3.90;;
17173;SDS011;8702;48.130;-1.696;2023-03-17T03:27:35;10.47;;;3.50;;
17173;SDS011;8702;48.130;-1.696;2023-03-17T03:30:02;9.13;;;3.87;;
17173;SDS011;8702;48.130;-1.696;2023-03-17T03:32:33;7.27;;;3.63;;
17173;SDS011;8702;48.130;-1.696;2023-03-17T03:35:00;11.57;;;3.90;;
17173;SDS011;8702;48.130;-1.696;2023-03-17T03:37:28;10.37;;;4.20;;
17173;SDS011;8702;48.130;-1.696;2023-03-17T03:39:55;11.20;;;4.03;;
17173;SDS011;8702;48.130;-1.696;2023-03-17T03:42:22;10.90;;;3.80;;
17173;SDS011;8702;48.130;-1.696;2023-03-17T03:44:49;7.90;;;3.60;;
17173;SDS011;8702;48.130;-1.696;2023-03-17T03:47:16;10.93;;;3.80;;
17173;SDS011;8702;48.130;-1.696;2023-03-17T03:49:47;11.73;;;4.10;;
17173;SDS011;8702;48.130;-1.696;2023-03-17T03:52:14;11.20;;;3.60;;
17173;SDS011;8702;48.130;-1.696;2023-03-17T03:54:41;10.80;;;4.60;;
17173;SDS011;8702;48.130;-1.696;2023-03-17T03:57:08;6.93;;;3.60;;
17173;SDS011;8702;48.130;-1.696;2023-03-17T03:59:35;11.33;;;3.80;;
17173;SDS011;8702;48.130;-1.696;2023-03-17T04:02:02;12.47;;;4.53;;
17173;SDS011;8702;48.130;-1.696;2023-03-17T04:04:31;9.80;;;3.73;;
17173;SDS011;8702;48.130;-1.696;2023-03-17T04:06:59;10.67;;;3.70;;
17173;SDS011;8702;48.130;-1.696;2023-03-17T04:09:26;11.67;;;4.23;;
17173;SDS011;8702;48.130;-1.696;2023-03-17T04:11:53;12.90;;;4.37;;
17173;SDS011;8702;48.130;-1.696;2023-03-17T04:14:20;12.47;;;4.00;;
17173;SDS011;8702;48.130;-1.696;2023-03-17T04:16:47;13.07;;;4.10;;
17173;SDS011;8702;48.130;-1.696;2023-03-17T04:19:14;9.40;;;4.27;;
17173;SDS011;8702;48.130;-1.696;2023-03-17T04:21:41;10.33;;;3.73;;
17173;SDS011;8702;48.130;-1.696;2023-03-17T04:24:09;7.83;;;3.40;;
17173;SDS011;8702;48.130;-1.696;2023-03-17T04:26:36;7.43;;;4.00;;
17173;SDS011;8702;48.130;-1.696;2023-03-17T04:29:06;9.40;;;4.03;;
17173;SDS011;8702;48.130;-1.696;2023-03-17T04:31:34;10.33;;;3.70;;
17173;SDS011;8702;48.130;-1.696;2023-03-17T04:34:03;10.70;;;4.27;;
17173;SDS011;8702;48.130;-1.696;2023-03-17T04:36:31;12.70;;;3.83;;
17173;SDS011;8702;48.130;-1.696;2023-03-17T04:38:58;10.77;;;4.10;;
17173;SDS011;8702;48.130;-1.696;2023-03-17T04:41:27;14.07;;;4.13;;
17173;SDS011;8702;48.130;-1.696;2023-03-17T04:43:54;8.33;;;3.70;;
17173;SDS011;8702;48.130;-1.696;2023-03-17T04:46:21;11.03;;;4.10;;
17173;SDS011;8702;48.130;-1.696;2023-03-17T04:48:48;11.33;;;3.57;;
17173;SDS011;8702;48.130;-1.696;2023-03-17T04:51:16;8.73;;;3.80;;
17173;SDS011;8702;48.130;-1.696;2023-03-17T04:53:43;11.80;;;4.20;;
17173;SDS011;8702;48.130;-1.696;2023-03-17T04:56:10;11.93;;;4.07;;
17173;SDS011;8702;48.130;-1.696;2023-03-17T04:58:39;11.77;;;4.53;;
17173;SDS011;8702;48.130;-1.696;2023-03-17T05:01:06;14.03;;;3.60;;
17173;SDS011;8702;48.130;-1.696;2023-03-17T05:03:33;10.70;;;4.33;;
17173;SDS011;8702;48.130;-1.696;2023-03-17T05:06:01;10.57;;;3.63;;
17173;SDS011;8702;48.130;-1.696;2023-03-17T05:08:31;10.37;;;3.70;;
17173;SDS011;8702;48.130;-1.696;2023-03-17T05:10:58;16.90;;;4.63;;
17173;SDS011;8702;48.130;-1.696;2023-03-17T05:13:26;11.53;;;3.67;;
17173;SDS011;8702;48.130;-1.696;2023-03-17T05:15:55;12.30;;;3.87;;
17173;SDS011;8702;48.130;-1.696;2023-03-17T05:18:24;12.93;;;3.50;;
17173;SDS011;8702;48.130;-1.696;2023-03-17T05:20:52;9.93;;;3.67;;
17173;SDS011;8702;48.130;-1.696;2023-03-17T05:23:19;10.53;;;4.33;;
17173;SDS011;8702;48.130;-1.696;2023-03-17T05:25:47;12.83;;;4.10;;
17173;SDS011;8702;48.130;-1.696;2023-03-17T05:28:15;7.87;;;3.27;;
17173;SDS011;8702;48.130;-1.696;2023-03-17T05:30:42;10.57;;;3.90;;
17173;SDS011;8702;48.130;-1.696;2023-03-17T05:33:11;13.03;;;3.80;;
17173;SDS011;8702;48.130;-1.696;2023-03-17T05:35:38;13.13;;;4.50;;
17173;SDS011;8702;48.130;-1.696;2023-03-17T05:38:05;8.27;;;3.80;;
17173;SDS011;8702;48.130;-1.696;2023-03-17T05:40:33;11.60;;;4.10;;
17173;SDS011;8702;48.130;-1.696;2023-03-17T05:43:01;10.10;;;3.90;;
17173;SDS011;8702;48.130;-1.696;2023-03-17T05:45:28;12.00;;;3.63;;
17173;SDS011;8702;48.130;-1.696;2023-03-17T05:47:56;11.90;;;4.20;;
17173;SDS011;8702;48.130;-1.696;2023-03-17T05:50:24;15.83;;;4.37;;
17173;SDS011;8702;48.130;-1.696;2023-03-17T05:52:52;9.57;;;4.40;;
17173;SDS011;8702;48.130;-1.696;2023-03-17T05:55:19;13.13;;;4.33;;
17173;SDS011;8702;48.130;-1.696;2023-03-17T05:57:46;11.30;;;4.70;;
17173;SDS011;8702;48.130;-1.696;2023-03-17T06:00:14;13.57;;;4.43;;
17173;SDS011;8702;48.130;-1.696;2023-03-17T06:02:42;13.27;;;4.27;;
17173;SDS011;8702;48.130;-1.696;2023-03-17T06:05:10;10.30;;;4.03;;
17173;SDS011;8702;48.130;-1.696;2023-03-17T06:07:38;13.00;;;4.37;;
17173;SDS011;8702;48.130;-1.696;2023-03-17T06:10:07;11.70;;;4.20;;
17173;SDS011;8702;48.130;-1.696;2023-03-17T06:12:35;9.93;;;3.93;;
17173;SDS011;8702;48.130;-1.696;2023-03-17T06:15:03;12.70;;;4.30;;
17173;SDS011;8702;48.130;-1.696;2023-03-17T06:17:30;11.37;;;4.30;;
17173;SDS011;8702;48.130;-1.696;2023-03-17T06:19:57;11.40;;;4.23;;
17173;SDS011;8702;48.130;-1.696;2023-03-17T06:22:24;11.93;;;4.33;;
17173;SDS011;8702;48.130;-1.696;2023-03-17T06:24:53;11.17;;;3.73;;
17173;SDS011;8702;48.130;-1.696;2023-03-17T06:27:20;11.50;;;4.37;;
17173;SDS011;8702;48.130;-1.696;2023-03-17T06:29:46;13.43;;;4.33;;
17173;SDS011;8702;48.130;-1.696;2023-03-17T06:32:13;10.87;;;4.77;;
17173;SDS011;8702;48.130;-1.696;2023-03-17T06:34:40;13.27;;;4.33;;
17173;SDS011;8702;48.130;-1.696;2023-03-17T06:37:07;10.57;;;4.53;;
17173;SDS011;8702;48.130;-1.696;2023-03-17T06:39:35;12.53;;;5.00;;
17173;SDS011;8702;48.130;-1.696;2023-03-17T06:42:04;13.47;;;4.73;;
17173;SDS011;8702;48.130;-1.696;2023-03-17T06:44:33;11.00;;;4.33;;
17173;SDS011;8702;48.130;-1.696;2023-03-17T06:47:02;13.50;;;4.77;;
17173;SDS011;8702;48.130;-1.696;2023-03-17T06:49:29;9.10;;;3.53;;
17173;SDS011;8702;48.130;-1.696;2023-03-17T06:51:57;11.77;;;4.10;;
17173;SDS011;8702;48.130;-1.696;2023-03-17T06:54:24;10.20;;;4.47;;
17173;SDS011;8702;48.130;-1.696;2023-03-17T06:56:51;11.33;;;3.97;;
17173;SDS011;8702;48.130;-1.696;2023-03-17T06:59:20;11.87;;;4.60;;
17173;SDS011;8702;48.130;-1.696;2023-03-17T07:01:48;12.47;;;4.40;;
17173;SDS011;8702;48.130;-1.696;2023-03-17T07:04:15;14.83;;;4.50;;
17173;SDS011;8702;48.130;-1.696;2023-03-17T07:06:43;11.13;;;4.27;;
17173;SDS011;8702;48.130;-1.696;2023-03-17T07:09:10;8.63;;;4.00;;
17173;SDS011;8702;48.130;-1.696;2023-03-17T07:11:37;13.43;;;4.87;;
17173;SDS011;8702;48.130;-1.696;2023-03-17T07:14:05;11.53;;;4.00;;
17173;SDS011;8702;48.130;-1.696;2023-03-17T07:16:34;15.70;;;4.90;;
17173;SDS011;8702;48.130;-1.696;2023-03-17T07:19:01;17.70;;;5.00;;
17173;SDS011;8702;48.130;-1.696;2023-03-17T07:21:28;12.87;;;4.63;;
17173;SDS011;8702;48.130;-1.696;2023-03-17T07:23:55;11.73;;;4.43;;
17173;SDS011;8702;48.130;-1.696;2023-03-17T07:26:22;15.27;;;4.27;;
17173;SDS011;8702;48.130;-1.696;2023-03-17T07:28:52;10.73;;;4.50;;
17173;SDS011;8702;48.130;-1.696;2023-03-17T07:31:25;18.90;;;5.00;;
17173;SDS011;8702;48.130;-1.696;2023-03-17T07:33:53;12.60;;;5.33;;
17173;SDS011;8702;48.130;-1.696;2023-03-17T07:36:21;12.70;;;5.03;;
17173;SDS011;8702;48.130;-1.696;2023-03-17T07:38:49;16.37;;;5.17;;
17173;SDS011;8702;48.130;-1.696;2023-03-17T07:41:16;13.97;;;4.57;;
17173;SDS011;8702;48.130;-1.696;2023-03-17T07:43:43;14.30;;;5.10;;
17173;SDS011;8702;48.130;-1.696;2023-03-17T07:46:10;17.17;;;6.10;;
17173;SDS011;8702;48.130;-1.696;2023-03-17T07:48:38;18.70;;;5.93;;
17173;SDS011;8702;48.130;-1.696;2023-03-17T07:51:11;8.17;;;3.50;;
17173;SDS011;8702;48.130;-1.696;2023-03-17T07:53:39;9.83;;;4.20;;
17173;SDS011;8702;48.130;-1.696;2023-03-17T07:56:07;11.30;;;4.30;;
17173;SDS011;8702;48.130;-1.696;2023-03-17T07:58:34;12.20;;;4.10;;
17173;SDS011;8702;48.130;-1.696;2023-03-17T08:01:01;8.07;;;4.10;;
17173;SDS011;8702;48.130;-1.696;2023-03-17T08:03:29;12.57;;;4.33;;
17173;SDS011;8702;48.130;-1.696;2023-03-17T08:05:56;11.53;;;4.33;;
17173;SDS011;8702;48.130;-1.696;2023-03-17T08:08:26;11.20;;;4.13;;
17173;SDS011;8702;48.130;-1.696;2023-03-17T08:10:57;13.30;;;3.90;;
17173;SDS011;8702;48.130;-1.696;2023-03-17T08:13:27;13.67;;;4.93;;
17173;SDS011;8702;48.130;-1.696;2023-03-17T08:15:54;10.27;;;4.43;;
17173;SDS011;8702;48.130;-1.696;2023-03-17T08:18:21;11.67;;;4.40;;
17173;SDS011;8702;48.130;-1.696;2023-03-17T08:20:48;13.07;;;4.60;;
17173;SDS011;8702;48.130;-1.696;2023-03-17T08:23:16;11.03;;;3.77;;
17173;SDS011;8702;48.130;-1.696;2023-03-17T08:25:44;14.53;;;4.83;;
17173;SDS011;8702;48.130;-1.696;2023-03-17T08:28:11;11.23;;;4.40;;
17173;SDS011;8702;48.130;-1.696;2023-03-17T08:30:39;16.33;;;4.57;;
17173;SDS011;8702;48.130;-1.696;2023-03-17T08:33:06;14.47;;;4.57;;
17173;SDS011;8702;48.130;-1.696;2023-03-17T08:35:36;10.47;;;4.17;;
17173;SDS011;8702;48.130;-1.696;2023-03-17T08:38:05;11.40;;;4.70;;
17173;SDS011;8702;48.130;-1.696;2023-03-17T08:40:32;11.73;;;4.60;;
17173;SDS011;8702;48.130;-1.696;2023-03-17T08:43:02;11.40;;;4.53;;
17173;SDS011;8702;48.130;-1.696;2023-03-17T08:45:28;9.40;;;4.30;;
17173;SDS011;8702;48.130;-1.696;2023-03-17T08:47:55;13.20;;;4.70;;
17173;SDS011;8702;48.130;-1.696;2023-03-17T08:50:22;13.70;;;4.97;;
17173;SDS011;8702;48.130;-1.696;2023-03-17T08:52:50;9.17;;;4.23;;
17173;SDS011;8702;48.130;-1.696;2023-03-17T08:55:19;15.97;;;5.37;;
17173;SDS011;8702;48.130;-1.696;2023-03-17T08:57:49;9.63;;;4.77;;
17173;SDS011;8702;48.130;-1.696;2023-03-17T09:00:19;12.00;;;5.20;;
17173;SDS011;8702;48.130;-1.696;2023-03-17T09:02:47;13.97;;;5.03;;
17173;SDS011;8702;48.130;-1.696;2023-03-17T09:05:16;17.53;;;5.03;;
17173;SDS011;8702;48.130;-1.696;2023-03-17T09:07:45;11.40;;;4.90;;
17173;SDS011;8702;48.130;-1.696;2023-03-17T09:10:13;12.57;;;4.80;;
17173;SDS011;8702;48.130;-1.696;2023-03-17T09:12:40;11.30;;;4.87;;
17173;SDS011;8702;48.130;-1.696;2023-03-17T09:15:10;10.53;;;4.70;;
17173;SDS011;8702;48.130;-1.696;2023-03-17T09:17:39;14.17;;;4.70;;
17173;SDS011;8702;48.130;-1.696;2023-03-17T09:20:08;12.83;;;4.73;;
17173;SDS011;8702;48.130;-1.696;2023-03-17T09:22:36;13.93;;;4.80;;
17173;SDS011;8702;48.130;-1.696;2023-03-17T09:25:03;14.00;;;4.47;;
17173;SDS011;8702;48.130;-1.696;2023-03-17T09:27:31;14.77;;;4.47;;
17173;SDS011;8702;48.130;-1.696;2023-03-17T09:29:59;10.43;;;4.50;;
17173;SDS011;8702;48.130;-1.696;2023-03-17T09:32:26;10.20;;;4.10;;
17173;SDS011;8702;48.130;-1.696;2023-03-17T09:34:55;7.90;;;4.17;;
17173;SDS011;8702;48.130;-1.696;2023-03-17T09:37:23;11.57;;;4.30;;
17173;SDS011;8702;48.130;-1.696;2023-03-17T09:39:52;11.57;;;4.53;;
17173;SDS011;8702;48.130;-1.696;2023-03-17T09:42:23;9.43;;;4.20;;
17173;SDS011;8702;48.130;-1.696;2023-03-17T09:45:09;12.07;;;3.80;;
17173;SDS011;8702;48.130;-1.696;2023-03-17T09:47:54;15.33;;;4.40;;
17173;SDS011;8702;48.130;-1.696;2023-03-17T09:50:43;10.43;;;3.40;;
17173;SDS011;8702;48.130;-1.696;2023-03-17T09:53:15;7.70;;;3.63;;
17173;SDS011;8702;48.130;-1.696;2023-03-17T09:55:45;10.93;;;3.33;;
17173;SDS011;8702;48.130;-1.696;2023-03-17T09:58:15;8.77;;;3.67;;
17173;SDS011;8702;48.130;-1.696;2023-03-17T10:00:46;7.03;;;2.87;;
17173;SDS011;8702;48.130;-1.696;2023-03-17T10:03:14;8.43;;;3.33;;
17173;SDS011;8702;48.130;-1.696;2023-03-17T10:05:43;8.43;;;2.57;;
17173;SDS011;8702;48.130;-1.696;2023-03-17T10:08:12;7.47;;;3.17;;
17173;SDS011;8702;48.130;-1.696;2023-03-17T10:10:41;7.60;;;3.30;;
17173;SDS011;8702;48.130;-1.696;2023-03-17T10:13:21;6.87;;;3.10;;
17173;SDS011;8702;48.130;-1.696;2023-03-17T10:16:04;6.40;;;2.20;;
17173;SDS011;8702;48.130;-1.696;2023-03-17T10:18:35;6.87;;;2.60;;
17173;SDS011;8702;48.130;-1.696;2023-03-17T10:21:10;6.10;;;2.43;;
17173;SDS011;8702;48.130;-1.696;2023-03-17T10:23:43;4.73;;;2.10;;
17173;SDS011;8702;48.130;-1.696;2023-03-17T10:26:15;5.33;;;2.40;;
17173;SDS011;8702;48.130;-1.696;2023-03-17T10:28:49;10.03;;;2.30;;
17173;SDS011;8702;48.130;-1.696;2023-03-17T10:31:16;5.70;;;2.20;;
17173;SDS011;8702;48.130;-1.696;2023-03-17T10:33:45;8.30;;;3.10;;
17173;SDS011;8702;48.130;-1.696;2023-03-17T10:36:31;5.63;;;2.40;;
17173;SDS011;8702;48.130;-1.696;2023-03-17T10:39:02;6.10;;;2.60;;
17173;SDS011;8702;48.130;-1.696;2023-03-17T10:41:31;4.77;;;2.83;;
17173;SDS011;8702;48.130;-1.696;2023-03-17T10:44:01;5.07;;;2.40;;
17173;SDS011;8702;48.130;-1.696;2023-03-17T10:46:34;5.90;;;2.13;;
17173;SDS011;8702;48.130;-1.696;2023-03-17T10:49:06;6.70;;;2.50;;
17173;SDS011;8702;48.130;-1.696;2023-03-17T10:51:36;6.77;;;2.63;;
17173;SDS011;8702;48.130;-1.696;2023-03-17T10:54:07;7.43;;;2.83;;
17173;SDS011;8702;48.130;-1.696;2023-03-17T10:56:35;11.00;;;3.00;;
17173;SDS011;8702;48.130;-1.696;2023-03-17T10:59:06;5.50;;;2.33;;
17173;SDS011;8702;48.130;-1.696;2023-03-17T11:01:43;9.10;;;2.97;;
17173;SDS011;8702;48.130;-1.696;2023-03-17T11:04:27;7.00;;;2.50;;
17173;SDS011;8702;48.130;-1.696;2023-03-17T11:06:59;5.97;;;1.97;;
17173;SDS011;8702;48.130;-1.696;2023-03-17T11:09:33;4.43;;;1.93;;
17173;SDS011;8702;48.130;-1.696;2023-03-17T11:12:01;5.33;;;2.43;;
17173;SDS011;8702;48.130;-1.696;2023-03-17T11:14:30;7.37;;;2.50;;
17173;SDS011;8702;48.130;-1.696;2023-03-17T11:16:58;7.23;;;2.37;;
17173;SDS011;8702;48.130;-1.696;2023-03-17T11:19:29;6.23;;;2.30;;
17173;SDS011;8702;48.130;-1.696;2023-03-17T11:22:09;5.97;;;2.10;;
17173;SDS011;8702;48.130;-1.696;2023-03-17T11:24:41;5.27;;;2.10;;
17173;SDS011;8702;48.130;-1.696;2023-03-17T11:27:18;5.47;;;2.30;;
17173;SDS011;8702;48.130;-1.696;2023-03-17T11:29:56;6.27;;;2.47;;
17173;SDS011;8702;48.130;-1.696;2023-03-17T11:32:35;5.83;;;2.27;;
17173;SDS011;8702;48.130;-1.696;2023-03-17T11:40:46;5.53;;;2.33;;
17173;SDS011;8702;48.130;-1.696;2023-03-17T11:43:28;6.30;;;2.50;;
17173;SDS011;8702;48.130;-1.696;2023-03-17T11:46:03;7.23;;;2.60;;
17173;SDS011;8702;48.130;-1.696;2023-03-17T11:48:36;10.43;;;2.80;;
17173;SDS011;8702;48.130;-1.696;2023-03-17T11:51:15;7.00;;;2.23;;
17173;SDS011;8702;48.130;-1.696;2023-03-17T11:53:57;7.03;;;2.10;;
17173;SDS011;8702;48.130;-1.696;2023-03-17T11:56:32;8.13;;;2.17;;
17173;SDS011;8702;48.130;-1.696;2023-03-17T11:59:05;7.43;;;2.10;;
17173;SDS011;8702;48.130;-1.696;2023-03-17T12:01:43;5.70;;;2.03;;
17173;SDS011;8702;48.130;-1.696;2023-03-17T12:04:19;4.97;;;1.77;;
17173;SDS011;8702;48.130;-1.696;2023-03-17T12:06:51;5.27;;;1.87;;
17173;SDS011;8702;48.130;-1.696;2023-03-17T12:09:26;5.87;;;2.00;;
17173;SDS011;8702;48.130;-1.696;2023-03-17T12:11:59;5.27;;;1.87;;
17173;SDS011;8702;48.130;-1.696;2023-03-17T12:14:27;4.87;;;1.50;;
17173;SDS011;8702;48.130;-1.696;2023-03-17T12:16:59;6.53;;;1.80;;
17173;SDS011;8702;48.130;-1.696;2023-03-17T12:19:31;5.00;;;1.70;;
17173;SDS011;8702;48.130;-1.696;2023-03-17T12:22:05;5.63;;;2.10;;
17173;SDS011;8702;48.130;-1.696;2023-03-17T12:24:34;6.13;;;1.70;;
17173;SDS011;8702;48.130;-1.696;2023-03-17T12:27:10;6.07;;;1.80;;
17173;SDS011;8702;48.130;-1.696;2023-03-17T12:29:42;10.23;;;2.33;;
17173;SDS011;8702;48.130;-1.696;2023-03-17T12:32:16;7.57;;;2.03;;
17173;SDS011;8702;48.130;-1.696;2023-03-17T12:34:45;7.60;;;1.80;;
17173;SDS011;8702;48.130;-1.696;2023-03-17T12:37:15;6.43;;;2.20;;
17173;SDS011;8702;48.130;-1.696;2023-03-17T12:39:46;9.17;;;2.10;;
17173;SDS011;8702;48.130;-1.696;2023-03-17T12:42:19;7.43;;;2.07;;
17173;SDS011;8702;48.130;-1.696;2023-03-17T12:44:52;6.57;;;2.00;;
17173;SDS011;8702;48.130;-1.696;2023-03-17T12:47:27;8.50;;;2.83;;
17173;SDS011;8702;48.130;-1.696;2023-03-17T12:53:03;8.13;;;2.63;;
17173;SDS011;8702;48.130;-1.696;2023-03-17T12:55:53;6.67;;;1.90;;
17173;SDS011;8702;48.130;-1.696;2023-03-17T12:58:28;9.27;;;2.27;;
17173;SDS011;8702;48.130;-1.696;2023-03-17T13:01:02;7.80;;;2.00;;
17173;SDS011;8702;48.130;-1.696;2023-03-17T13:03:35;10.77;;;2.10;;
17173;SDS011;8702;48.130;-1.696;2023-03-17T13:06:13;9.00;;;2.63;;
17173;SDS011;8702;48.130;-1.696;2023-03-17T13:08:42;7.17;;;2.57;;
17173;SDS011;8702;48.130;-1.696;2023-03-17T13:11:13;11.37;;;2.93;;
17173;SDS011;8702;48.130;-1.696;2023-03-17T13:13:45;9.77;;;2.27;;
17173;SDS011;8702;48.130;-1.696;2023-03-17T13:16:27;10.00;;;2.37;;
17173;SDS011;8702;48.130;-1.696;2023-03-17T13:19:05;7.23;;;2.50;;
17173;SDS011;8702;48.130;-1.696;2023-03-17T13:21:42;7.70;;;2.40;;
17173;SDS011;8702;48.130;-1.696;2023-03-17T13:24:21;6.43;;;2.03;;
17173;SDS011;8702;48.130;-1.696;2023-03-17T13:27:01;7.37;;;2.40;;
17173;SDS011;8702;48.130;-1.696;2023-03-17T13:29:40;7.13;;;2.40;;
17173;SDS011;8702;48.130;-1.696;2023-03-17T13:35:12;6.87;;;2.00;;
17173;SDS011;8702;48.130;-1.696;2023-03-17T13:38:00;7.27;;;2.37;;
17173;SDS011;8702;48.130;-1.696;2023-03-17T13:40:53;6.87;;;1.90;;
17173;SDS011;8702;48.130;-1.696;2023-03-17T13:43:45;10.90;;;2.60;;
17173;SDS011;8702;48.130;-1.696;2023-03-17T13:46:25;6.73;;;2.20;;
17173;SDS011;8702;48.130;-1.696;2023-03-17T13:49:00;8.00;;;2.17;;
17173;SDS011;8702;48.130;-1.696;2023-03-17T13:51:30;10.80;;;2.20;;
17173;SDS011;8702;48.130;-1.696;2023-03-17T13:54:05;6.93;;;2.23;;
17173;SDS011;8702;48.130;-1.696;2023-03-17T13:56:45;5.33;;;1.90;;
17173;SDS011;8702;48.130;-1.696;2023-03-17T13:59:14;5.90;;;1.67;;
17173;SDS011;8702;48.130;-1.696;2023-03-17T14:01:47;5.93;;;1.90;;
17173;SDS011;8702;48.130;-1.696;2023-03-17T14:04:19;5.77;;;1.87;;
17173;SDS011;8702;48.130;-1.696;2023-03-17T14:06:50;8.20;;;2.17;;
17173;SDS011;8702;48.130;-1.696;2023-03-17T14:09:25;8.03;;;1.83;;
17173;SDS011;8702;48.130;-1.696;2023-03-17T14:11:54;9.30;;;1.70;;
17173;SDS011;8702;48.130;-1.696;2023-03-17T14:14:27;6.40;;;1.50;;
17173;SDS011;8702;48.130;-1.696;2023-03-17T14:17:10;7.60;;;1.80;;
17173;SDS011;8702;48.130;-1.696;2023-03-17T14:19:40;5.53;;;1.77;;
17173;SDS011;8702;48.130;-1.696;2023-03-17T14:22:24;7.57;;;1.93;;
17173;SDS011;8702;48.130;-1.696;2023-03-17T14:24:52;6.33;;;1.90;;
17173;SDS011;8702;48.130;-1.696;2023-03-17T14:27:20;4.13;;;1.67;;
17173;SDS011;8702;48.130;-1.696;2023-03-17T14:29:49;8.53;;;1.83;;
17173;SDS011;8702;48.130;-1.696;2023-03-17T14:32:18;4.00;;;1.83;;
17173;SDS011;8702;48.130;-1.696;2023-03-17T14:34:46;5.10;;;1.90;;
17173;SDS011;8702;48.130;-1.696;2023-03-17T14:37:19;5.23;;;2.00;;
17173;SDS011;8702;48.130;-1.696;2023-03-17T14:39:48;6.80;;;1.90;;
17173;SDS011;8702;48.130;-1.696;2023-03-17T14:42:17;4.37;;;1.73;;
17173;SDS011;8702;48.130;-1.696;2023-03-17T14:44:57;7.73;;;2.30;;
17173;SDS011;8702;48.130;-1.696;2023-03-17T14:47:27;5.57;;;1.87;;
17173;SDS011;8702;48.130;-1.696;2023-03-17T14:50:03;3.77;;;1.50;;
17173;SDS011;8702;48.130;-1.696;2023-03-17T14:52:36;5.57;;;1.67;;
17173;SDS011;8702;48.130;-1.696;2023-03-17T14:55:05;6.17;;;1.97;;
17173;SDS011;8702;48.130;-1.696;2023-03-17T14:57:33;4.03;;;1.73;;
17173;SDS011;8702;48.130;-1.696;2023-03-17T15:00:18;5.50;;;1.70;;
17173;SDS011;8702;48.130;-1.696;2023-03-17T15:02:57;6.00;;;2.10;;
17173;SDS011;8702;48.130;-1.696;2023-03-17T15:05:28;5.93;;;1.77;;
17173;SDS011;8702;48.130;-1.696;2023-03-17T15:08:01;7.13;;;1.73;;
17173;SDS011;8702;48.130;-1.696;2023-03-17T15:11:03;3.97;;;1.80;;
17173;SDS011;8702;48.130;-1.696;2023-03-17T15:13:32;4.93;;;1.90;;
17173;SDS011;8702;48.130;-1.696;2023-03-17T15:16:04;4.77;;;1.70;;
17173;SDS011;8702;48.130;-1.696;2023-03-17T15:18:33;6.07;;;2.10;;